sensor_id;sensor_type;location;lat;lon;timestamp;pressure;altitude;pressure_sealevel;temperature;humidity
64628;BME280;68467;50.960;0.314;2023-03-13T00:00:58;98254.08;;;7.20;100.00
64628;BME280;68467;50.960;0.314;2023-03-13T00:03:27;98261.05;;;7.36;100.00
64628;BME280;68467;50.960;0.314;2023-03-13T00:05:56;98254.48;;;7.26;100.00
64628;BME280;68467;50.960;0.314;2023-03-13T00:08:25;98252.73;;;7.25;100.00
64628;BME280;68467;50.960;0.314;2023-03-13T00:10:55;98251.32;;;7.32;100.00
64628;BME280;68467;50.960;0.314;2023-03-13T00:13:22;98187.67;;;7.44;100.00
64628;BME280;68467;50.960;0.314;2023-03-13T00:15:50;98262.57;;;7.19;100.00
64628;BME280;68467;50.960;0.314;2023-03-13T00:18:25;98245.23;;;7.21;100.00
64628;BME280;68467;50.960;0.314;2023-03-13T00:20:57;98243.62;;;7.32;100.00
64628;BME280;68467;50.960;0.314;2023-03-13T00:23:24;98237.97;;;7.38;100.00
64628;BME280;68467;50.960;0.314;2023-03-13T00:25:56;98231.08;;;7.41;100.00
64628;BME280;68467;50.960;0.314;2023-03-13T00:28:23;98240.98;;;7.53;100.00
64628;BME280;68467;50.960;0.314;2023-03-13T00:30:51;98233.33;;;7.41;100.00
64628;BME280;68467;50.960;0.314;2023-03-13T00:33:26;98229.06;;;7.38;100.00
64628;BME280;68467;50.960;0.314;2023-03-13T00:35:57;98227.22;;;7.28;100.00
64628;BME280;68467;50.960;0.314;2023-03-13T00:38:24;98224.79;;;7.59;100.00
64628;BME280;68467;50.960;0.314;2023-03-13T00:40:58;98234.12;;;7.49;100.00
64628;BME280;68467;50.960;0.314;2023-03-13T00:43:25;98243.02;;;7.49;100.00
64628;BME280;68467;50.960;0.314;2023-03-13T00:45:53;98224.20;;;7.38;100.00
64628;BME280;68467;50.960;0.314;2023-03-13T00:48:20;98237.66;;;7.45;100.00
64628;BME280;68467;50.960;0.314;2023-03-13T00:50:47;98228.85;;;7.21;100.00
64628;BME280;68467;50.960;0.314;2023-03-13T00:53:15;98205.14;;;7.24;100.00
64628;BME280;68467;50.960;0.314;2023-03-13T00:55:51;98214.94;;;7.20;100.00
64628;BME280;68467;50.960;0.314;2023-03-13T00:58:19;98198.30;;;7.39;100.00
64628;BME280;68467;50.960;0.314;2023-03-13T01:00:46;98199.47;;;7.18;100.00
64628;BME280;68467;50.960;0.314;2023-03-13T01:03:14;98187.35;;;7.15;100.00
64628;BME280;68467;50.960;0.314;2023-03-13T01:05:41;98199.70;;;7.31;100.00
64628;BME280;68467;50.960;0.314;2023-03-13T01:08:09;98181.06;;;7.51;100.00
64628;BME280;68467;50.960;0.314;2023-03-13T01:10:36;98184.67;;;7.27;100.00
64628;BME280;68467;50.960;0.314;2023-03-13T01:13:03;98189.92;;;7.46;100.00
64628;BME280;68467;50.960;0.314;2023-03-13T01:15:34;98176.71;;;7.39;100.00
64628;BME280;68467;50.960;0.314;2023-03-13T01:18:01;98185.90;;;7.30;100.00
64628;BME280;68467;50.960;0.314;2023-03-13T01:20:29;98183.36;;;7.38;100.00
64628;BME280;68467;50.960;0.314;2023-03-13T01:22:56;98199.61;;;7.24;100.00
64628;BME280;68467;50.960;0.314;2023-03-13T01:25:24;98190.92;;;6.92;100.00
64628;BME280;68467;50.960;0.314;2023-03-13T01:27:50;98164.11;;;7.22;100.00
64628;BME280;68467;50.960;0.314;2023-03-13T01:30:18;98197.87;;;7.44;100.00
64628;BME280;68467;50.960;0.314;2023-03-13T01:32:45;98193.43;;;7.14;100.00
64628;BME280;68467;50.960;0.314;2023-03-13T01:35:11;98197.42;;;7.20;100.00
64628;BME280;68467;50.960;0.314;2023-03-13T01:37:38;98165.29;;;7.34;100.00
64628;BME280;68467;50.960;0.314;2023-03-13T01:40:06;98182.68;;;7.32;100.00
64628;BME280;68467;50.960;0.314;2023-03-13T01:42:48;98170.05;;;7.18;100.00
64628;BME280;68467;50.960;0.314;2023-03-13T01:45:55;98160.91;;;7.14;100.00
64628;BME280;68467;50.960;0.314;2023-03-13T01:48:28;98143.61;;;7.60;100.00
64628;BME280;68467;50.960;0.314;2023-03-13T01:50:59;98137.02;;;7.14;100.00
64628;BME280;68467;50.960;0.314;2023-03-13T01:53:28;98139.12;;;7.38;100.00
64628;BME280;68467;50.960;0.314;2023-03-13T01:55:59;98126.33;;;7.45;100.00
64628;BME280;68467;50.960;0.314;2023-03-13T01:58:28;98109.15;;;7.52;100.00
64628;BME280;68467;50.960;0.314;2023-03-13T02:00:57;98092.16;;;7.48;100.00
64628;BME280;68467;50.960;0.314;2023-03-13T02:03:26;98106.02;;;7.58;100.00
64628;BME280;68467;50.960;0.314;2023-03-13T02:05:55;98112.29;;;7.30;100.00
64628;BME280;68467;50.960;0.314;2023-03-13T02:08:30;98107.07;;;7.42;100.00
64628;BME280;68467;50.960;0.314;2023-03-13T02:11:06;98100.51;;;7.29;100.00
64628;BME280;68467;50.960;0.314;2023-03-13T02:13:36;98115.94;;;7.16;100.00
64628;BME280;68467;50.960;0.314;2023-03-13T02:16:05;98112.28;;;7.38;100.00
64628;BME280;68467;50.960;0.314;2023-03-13T02:18:32;98131.64;;;7.35;100.00
64628;BME280;68467;50.960;0.314;2023-03-13T02:21:08;98121.84;;;7.49;100.00
64628;BME280;68467;50.960;0.314;2023-03-13T02:23:43;98101.23;;;7.45;100.00
64628;BME280;68467;50.960;0.314;2023-03-13T02:26:14;98118.13;;;7.24;100.00
64628;BME280;68467;50.960;0.314;2023-03-13T02:28:41;98113.88;;;7.31;100.00
64628;BME280;68467;50.960;0.314;2023-03-13T02:31:09;98087.02;;;7.44;100.00
64628;BME280;68467;50.960;0.314;2023-03-13T02:33:39;98088.96;;;7.50;100.00
64628;BME280;68467;50.960;0.314;2023-03-13T02:36:07;98067.22;;;7.33;100.00
64628;BME280;68467;50.960;0.314;2023-03-13T02:38:40;98058.14;;;7.30;100.00
64628;BME280;68467;50.960;0.314;2023-03-13T02:41:09;98052.29;;;7.48;100.00
64628;BME280;68467;50.960;0.314;2023-03-13T02:43:38;98051.24;;;7.30;100.00
64628;BME280;68467;50.960;0.314;2023-03-13T02:46:08;98063.88;;;7.43;100.00
64628;BME280;68467;50.960;0.314;2023-03-13T02:48:37;98048.90;;;7.59;100.00
64628;BME280;68467;50.960;0.314;2023-03-13T02:51:12;98057.28;;;7.31;100.00
64628;BME280;68467;50.960;0.314;2023-03-13T02:53:41;98045.46;;;7.36;100.00
64628;BME280;68467;50.960;0.314;2023-03-13T02:56:11;98061.13;;;7.33;100.00
64628;BME280;68467;50.960;0.314;2023-03-13T02:58:40;98037.00;;;7.56;100.00
64628;BME280;68467;50.960;0.314;2023-03-13T03:01:07;98033.20;;;7.55;100.00
64628;BME280;68467;50.960;0.314;2023-03-13T03:03:35;98028.85;;;7.32;100.00
64628;BME280;68467;50.960;0.314;2023-03-13T03:06:04;98022.37;;;7.37;100.00
64628;BME280;68467;50.960;0.314;2023-03-13T03:08:33;98016.37;;;7.13;100.00
64628;BME280;68467;50.960;0.314;2023-03-13T03:11:01;98008.69;;;7.00;100.00
64628;BME280;68467;50.960;0.314;2023-03-13T03:13:31;98030.45;;;7.44;100.00
64628;BME280;68467;50.960;0.314;2023-03-13T03:15:58;98024.36;;;7.21;100.00
64628;BME280;68467;50.960;0.314;2023-03-13T03:18:25;98021.35;;;7.14;100.00
64628;BME280;68467;50.960;0.314;2023-03-13T03:20:52;98017.64;;;7.09;100.00
64628;BME280;68467;50.960;0.314;2023-03-13T03:23:19;98006.45;;;7.25;100.00
64628;BME280;68467;50.960;0.314;2023-03-13T03:25:46;98024.25;;;6.82;100.00
64628;BME280;68467;50.960;0.314;2023-03-13T03:28:13;98018.21;;;6.70;100.00
64628;BME280;68467;50.960;0.314;2023-03-13T03:30:41;98029.33;;;6.71;100.00
64628;BME280;68467;50.960;0.314;2023-03-13T03:33:08;98010.40;;;6.88;100.00
64628;BME280;68467;50.960;0.314;2023-03-13T03:35:34;98022.24;;;6.67;100.00
64628;BME280;68467;50.960;0.314;2023-03-13T03:38:01;98028.60;;;6.87;100.00
64628;BME280;68467;50.960;0.314;2023-03-13T03:40:28;98015.28;;;6.57;100.00
64628;BME280;68467;50.960;0.314;2023-03-13T03:42:55;97934.72;;;6.58;100.00
64628;BME280;68467;50.960;0.314;2023-03-13T03:45:21;98000.17;;;6.79;100.00
64628;BME280;68467;50.960;0.314;2023-03-13T03:47:49;98005.21;;;6.73;100.00
64628;BME280;68467;50.960;0.314;2023-03-13T03:50:16;98028.24;;;7.28;100.00
64628;BME280;68467;50.960;0.314;2023-03-13T03:52:43;98006.90;;;6.76;100.00
64628;BME280;68467;50.960;0.314;2023-03-13T03:55:10;97996.20;;;6.70;100.00
64628;BME280;68467;50.960;0.314;2023-03-13T03:57:37;98021.93;;;6.79;100.00
64628;BME280;68467;50.960;0.314;2023-03-13T04:00:05;98014.64;;;6.85;100.00
64628;BME280;68467;50.960;0.314;2023-03-13T04:02:33;98005.19;;;7.09;100.00
64628;BME280;68467;50.960;0.314;2023-03-13T04:05:00;98022.94;;;6.60;100.00
64628;BME280;68467;50.960;0.314;2023-03-13T04:07:27;98013.70;;;7.21;100.00
64628;BME280;68467;50.960;0.314;2023-03-13T04:09:54;98026.34;;;6.99;100.00
64628;BME280;68467;50.960;0.314;2023-03-13T04:12:21;98030.16;;;7.21;100.00
64628;BME280;68467;50.960;0.314;2023-03-13T04:14:49;98033.90;;;6.79;100.00
64628;BME280;68467;50.960;0.314;2023-03-13T04:17:16;98019.34;;;6.95;100.00
64628;BME280;68467;50.960;0.314;2023-03-13T04:19:43;98039.72;;;7.11;100.00
64628;BME280;68467;50.960;0.314;2023-03-13T04:22:10;98037.93;;;6.95;100.00
64628;BME280;68467;50.960;0.314;2023-03-13T04:24:37;98030.11;;;6.99;100.00
64628;BME280;68467;50.960;0.314;2023-03-13T04:27:05;98040.62;;;6.96;100.00
64628;BME280;68467;50.960;0.314;2023-03-13T04:29:33;98040.98;;;6.91;100.00
64628;BME280;68467;50.960;0.314;2023-03-13T04:32:00;98050.65;;;6.96;100.00
64628;BME280;68467;50.960;0.314;2023-03-13T04:34:27;98034.36;;;7.10;100.00
64628;BME280;68467;50.960;0.314;2023-03-13T04:36:54;98041.51;;;6.99;100.00
64628;BME280;68467;50.960;0.314;2023-03-13T04:39:22;98041.41;;;6.95;100.00
64628;BME280;68467;50.960;0.314;2023-03-13T04:41:49;98023.07;;;7.19;100.00
64628;BME280;68467;50.960;0.314;2023-03-13T04:44:17;98033.44;;;6.57;100.00
64628;BME280;68467;50.960;0.314;2023-03-13T04:46:44;98047.72;;;6.92;100.00
64628;BME280;68467;50.960;0.314;2023-03-13T04:49:11;98037.32;;;7.08;100.00
64628;BME280;68467;50.960;0.314;2023-03-13T04:51:38;98034.08;;;7.00;100.00
64628;BME280;68467;50.960;0.314;2023-03-13T04:54:05;98018.83;;;7.13;100.00
64628;BME280;68467;50.960;0.314;2023-03-13T04:56:33;97977.79;;;6.80;100.00
64628;BME280;68467;50.960;0.314;2023-03-13T04:59:00;98017.23;;;6.81;100.00
64628;BME280;68467;50.960;0.314;2023-03-13T05:01:27;98007.09;;;6.91;100.00
64628;BME280;68467;50.960;0.314;2023-03-13T05:03:54;98004.26;;;6.82;100.00
64628;BME280;68467;50.960;0.314;2023-03-13T05:06:21;98012.65;;;6.84;100.00
64628;BME280;68467;50.960;0.314;2023-03-13T05:08:48;98006.89;;;7.17;100.00
64628;BME280;68467;50.960;0.314;2023-03-13T05:11:15;98010.36;;;7.03;100.00
64628;BME280;68467;50.960;0.314;2023-03-13T05:13:41;97997.92;;;7.12;100.00
64628;BME280;68467;50.960;0.314;2023-03-13T05:16:10;97983.04;;;6.79;100.00
64628;BME280;68467;50.960;0.314;2023-03-13T05:18:37;97982.86;;;7.01;100.00
64628;BME280;68467;50.960;0.314;2023-03-13T05:21:04;97981.10;;;6.98;100.00
64628;BME280;68467;50.960;0.314;2023-03-13T05:23:31;97966.78;;;6.98;100.00
64628;BME280;68467;50.960;0.314;2023-03-13T05:25:59;97969.77;;;7.04;100.00
64628;BME280;68467;50.960;0.314;2023-03-13T05:28:27;97963.62;;;7.23;100.00
64628;BME280;68467;50.960;0.314;2023-03-13T05:30:54;97960.33;;;7.15;100.00
64628;BME280;68467;50.960;0.314;2023-03-13T05:33:21;97965.52;;;7.37;100.00
64628;BME280;68467;50.960;0.314;2023-03-13T05:35:48;97943.70;;;7.01;100.00
64628;BME280;68467;50.960;0.314;2023-03-13T05:38:16;97948.81;;;7.04;100.00
64628;BME280;68467;50.960;0.314;2023-03-13T05:40:43;97948.63;;;6.92;100.00
64628;BME280;68467;50.960;0.314;2023-03-13T05:43:10;97953.10;;;6.83;100.00
64628;BME280;68467;50.960;0.314;2023-03-13T05:45:37;97945.29;;;6.87;100.00
64628;BME280;68467;50.960;0.314;2023-03-13T05:48:05;97953.36;;;6.93;100.00
64628;BME280;68467;50.960;0.314;2023-03-13T05:50:32;97956.66;;;7.00;100.00
64628;BME280;68467;50.960;0.314;2023-03-13T05:52:59;97938.96;;;6.90;100.00
64628;BME280;68467;50.960;0.314;2023-03-13T05:55:26;97953.43;;;6.80;100.00
64628;BME280;68467;50.960;0.314;2023-03-13T05:57:53;97985.59;;;6.50;100.00
64628;BME280;68467;50.960;0.314;2023-03-13T06:00:20;97965.01;;;7.06;100.00
64628;BME280;68467;50.960;0.314;2023-03-13T06:02:47;97965.58;;;6.75;100.00
64628;BME280;68467;50.960;0.314;2023-03-13T06:05:14;97968.78;;;6.89;100.00
64628;BME280;68467;50.960;0.314;2023-03-13T06:07:42;97966.15;;;6.76;100.00
64628;BME280;68467;50.960;0.314;2023-03-13T06:10:10;97946.22;;;6.71;100.00
64628;BME280;68467;50.960;0.314;2023-03-13T06:12:37;97951.80;;;6.90;100.00
64628;BME280;68467;50.960;0.314;2023-03-13T06:15:06;97934.12;;;6.89;100.00
64628;BME280;68467;50.960;0.314;2023-03-13T06:17:33;97932.40;;;7.14;100.00
64628;BME280;68467;50.960;0.314;2023-03-13T06:20:01;97940.51;;;7.29;100.00
64628;BME280;68467;50.960;0.314;2023-03-13T06:22:28;97929.81;;;7.11;100.00
64628;BME280;68467;50.960;0.314;2023-03-13T06:24:55;97927.36;;;7.12;100.00
64628;BME280;68467;50.960;0.314;2023-03-13T06:27:22;97939.24;;;7.17;100.00
64628;BME280;68467;50.960;0.314;2023-03-13T06:29:48;97921.30;;;7.16;100.00
64628;BME280;68467;50.960;0.314;2023-03-13T06:32:16;97907.97;;;7.01;100.00
64628;BME280;68467;50.960;0.314;2023-03-13T06:34:43;97939.91;;;7.05;100.00
64628;BME280;68467;50.960;0.314;2023-03-13T06:37:11;97920.01;;;6.80;100.00
64628;BME280;68467;50.960;0.314;2023-03-13T06:39:37;97935.51;;;7.01;100.00
64628;BME280;68467;50.960;0.314;2023-03-13T06:42:05;97923.90;;;7.13;100.00
64628;BME280;68467;50.960;0.314;2023-03-13T06:44:33;97920.40;;;7.19;100.00
64628;BME280;68467;50.960;0.314;2023-03-13T06:47:00;97920.79;;;7.02;100.00
64628;BME280;68467;50.960;0.314;2023-03-13T06:49:27;97916.85;;;7.15;100.00
64628;BME280;68467;50.960;0.314;2023-03-13T06:51:56;97924.64;;;7.10;100.00
64628;BME280;68467;50.960;0.314;2023-03-13T06:54:23;97935.57;;;7.08;100.00
64628;BME280;68467;50.960;0.314;2023-03-13T06:56:51;97917.86;;;7.15;100.00
64628;BME280;68467;50.960;0.314;2023-03-13T06:59:17;97910.36;;;7.05;100.00
64628;BME280;68467;50.960;0.314;2023-03-13T07:01:44;97923.69;;;6.99;100.00
64628;BME280;68467;50.960;0.314;2023-03-13T07:04:17;97925.59;;;7.08;100.00
64628;BME280;68467;50.960;0.314;2023-03-13T07:06:44;97917.71;;;7.24;100.00
64628;BME280;68467;50.960;0.314;2023-03-13T07:09:16;97912.15;;;6.85;100.00
64628;BME280;68467;50.960;0.314;2023-03-13T07:11:43;97903.31;;;6.89;100.00
64628;BME280;68467;50.960;0.314;2023-03-13T07:14:10;97914.51;;;7.00;100.00
64628;BME280;68467;50.960;0.314;2023-03-13T07:16:36;97900.73;;;7.29;100.00
64628;BME280;68467;50.960;0.314;2023-03-13T07:19:04;97910.92;;;7.14;100.00
64628;BME280;68467;50.960;0.314;2023-03-13T07:21:31;97905.12;;;7.18;100.00
64628;BME280;68467;50.960;0.314;2023-03-13T07:23:58;97904.67;;;7.11;100.00
64628;BME280;68467;50.960;0.314;2023-03-13T07:26:25;97895.48;;;7.13;100.00
64628;BME280;68467;50.960;0.314;2023-03-13T07:28:53;97921.97;;;7.10;100.00
64628;BME280;68467;50.960;0.314;2023-03-13T07:31:22;97910.01;;;7.14;100.00
64628;BME280;68467;50.960;0.314;2023-03-13T07:33:50;97913.83;;;7.17;100.00
64628;BME280;68467;50.960;0.314;2023-03-13T07:36:17;97900.02;;;6.87;100.00
64628;BME280;68467;50.960;0.314;2023-03-13T07:38:47;97911.79;;;7.07;100.00
64628;BME280;68467;50.960;0.314;2023-03-13T07:41:14;97903.10;;;7.14;100.00
64628;BME280;68467;50.960;0.314;2023-03-13T07:43:42;97913.79;;;6.92;100.00
64628;BME280;68467;50.960;0.314;2023-03-13T07:46:12;97909.83;;;7.43;100.00
64628;BME280;68467;50.960;0.314;2023-03-13T07:48:41;97897.57;;;7.19;100.00
64628;BME280;68467;50.960;0.314;2023-03-13T07:51:12;97905.48;;;7.25;100.00
64628;BME280;68467;50.960;0.314;2023-03-13T07:53:39;97922.56;;;6.96;100.00
64628;BME280;68467;50.960;0.314;2023-03-13T07:56:09;97912.28;;;7.27;100.00
64628;BME280;68467;50.960;0.314;2023-03-13T07:58:37;97913.64;;;7.28;100.00
64628;BME280;68467;50.960;0.314;2023-03-13T08:01:08;97904.08;;;7.05;100.00
64628;BME280;68467;50.960;0.314;2023-03-13T08:03:36;97897.41;;;7.27;100.00
64628;BME280;68467;50.960;0.314;2023-03-13T08:06:06;97905.95;;;7.08;100.00
64628;BME280;68467;50.960;0.314;2023-03-13T08:08:33;97899.43;;;7.48;100.00
64628;BME280;68467;50.960;0.314;2023-03-13T08:11:02;97892.30;;;6.87;100.00
64628;BME280;68467;50.960;0.314;2023-03-13T08:13:31;97902.15;;;7.23;100.00
64628;BME280;68467;50.960;0.314;2023-03-13T08:16:04;97891.31;;;7.03;100.00
64628;BME280;68467;50.960;0.314;2023-03-13T08:18:32;97886.17;;;7.20;100.00
64628;BME280;68467;50.960;0.314;2023-03-13T08:21:01;97887.10;;;7.15;100.00
64628;BME280;68467;50.960;0.314;2023-03-13T08:23:28;97873.43;;;7.45;100.00
64628;BME280;68467;50.960;0.314;2023-03-13T08:26:02;97868.85;;;7.47;100.00
64628;BME280;68467;50.960;0.314;2023-03-13T08:28:29;97851.92;;;7.75;100.00
64628;BME280;68467;50.960;0.314;2023-03-13T08:30:56;97874.47;;;7.42;100.00
64628;BME280;68467;50.960;0.314;2023-03-13T08:33:23;97875.20;;;7.29;100.00
64628;BME280;68467;50.960;0.314;2023-03-13T08:35:50;97871.82;;;7.43;100.00
64628;BME280;68467;50.960;0.314;2023-03-13T08:38:18;97863.29;;;7.35;100.00
64628;BME280;68467;50.960;0.314;2023-03-13T08:40:45;97871.58;;;7.47;100.00
64628;BME280;68467;50.960;0.314;2023-03-13T08:43:12;97870.01;;;7.37;100.00
64628;BME280;68467;50.960;0.314;2023-03-13T08:45:39;97853.92;;;7.40;100.00
64628;BME280;68467;50.960;0.314;2023-03-13T08:48:06;97857.85;;;7.18;100.00
64628;BME280;68467;50.960;0.314;2023-03-13T08:50:34;97854.58;;;7.70;100.00
64628;BME280;68467;50.960;0.314;2023-03-13T08:53:01;97829.20;;;7.36;100.00
64628;BME280;68467;50.960;0.314;2023-03-13T08:55:29;97825.75;;;7.58;100.00
64628;BME280;68467;50.960;0.314;2023-03-13T08:57:56;97809.39;;;7.44;100.00
64628;BME280;68467;50.960;0.314;2023-03-13T09:00:24;97833.94;;;7.85;100.00
64628;BME280;68467;50.960;0.314;2023-03-13T09:02:51;97817.71;;;8.00;100.00
64628;BME280;68467;50.960;0.314;2023-03-13T09:05:18;97832.56;;;8.02;100.00
64628;BME280;68467;50.960;0.314;2023-03-13T09:07:45;97840.79;;;8.01;100.00
64628;BME280;68467;50.960;0.314;2023-03-13T09:10:13;97822.04;;;7.94;100.00
64628;BME280;68467;50.960;0.314;2023-03-13T09:12:40;97814.03;;;8.27;100.00
64628;BME280;68467;50.960;0.314;2023-03-13T09:15:09;97853.69;;;8.11;100.00
64628;BME280;68467;50.960;0.314;2023-03-13T09:17:36;97842.90;;;8.15;100.00
64628;BME280;68467;50.960;0.314;2023-03-13T09:20:04;97834.80;;;8.29;100.00
64628;BME280;68467;50.960;0.314;2023-03-13T09:22:31;97836.12;;;8.49;100.00
64628;BME280;68467;50.960;0.314;2023-03-13T09:24:58;97828.23;;;8.36;100.00
64628;BME280;68467;50.960;0.314;2023-03-13T09:27:25;97827.95;;;8.47;100.00
64628;BME280;68467;50.960;0.314;2023-03-13T09:29:52;97838.57;;;8.35;100.00
64628;BME280;68467;50.960;0.314;2023-03-13T09:32:20;97837.21;;;8.57;100.00
64628;BME280;68467;50.960;0.314;2023-03-13T09:34:47;97824.38;;;8.12;100.00
64628;BME280;68467;50.960;0.314;2023-03-13T09:37:14;97858.97;;;8.34;100.00
64628;BME280;68467;50.960;0.314;2023-03-13T09:39:42;97839.09;;;8.29;100.00
64628;BME280;68467;50.960;0.314;2023-03-13T09:42:13;97858.21;;;7.91;100.00
64628;BME280;68467;50.960;0.314;2023-03-13T09:44:45;97831.55;;;8.01;100.00
64628;BME280;68467;50.960;0.314;2023-03-13T09:47:19;97855.67;;;8.34;100.00
64628;BME280;68467;50.960;0.314;2023-03-13T09:49:52;97838.80;;;7.95;100.00
64628;BME280;68467;50.960;0.314;2023-03-13T09:52:22;97852.02;;;8.49;100.00
64628;BME280;68467;50.960;0.314;2023-03-13T09:54:53;97849.79;;;8.38;100.00
64628;BME280;68467;50.960;0.314;2023-03-13T09:57:27;97860.15;;;8.22;100.00
64628;BME280;68467;50.960;0.314;2023-03-13T09:59:59;97841.10;;;8.32;100.00
64628;BME280;68467;50.960;0.314;2023-03-13T10:02:30;97851.20;;;8.38;100.00
64628;BME280;68467;50.960;0.314;2023-03-13T10:05:07;97839.41;;;8.53;100.00
64628;BME280;68467;50.960;0.314;2023-03-13T10:07:36;97844.56;;;7.99;100.00
64628;BME280;68467;50.960;0.314;2023-03-13T10:10:18;97857.97;;;8.93;100.00
64628;BME280;68467;50.960;0.314;2023-03-13T10:12:48;97833.55;;;8.99;100.00
64628;BME280;68467;50.960;0.314;2023-03-13T10:15:32;97863.50;;;8.79;100.00
64628;BME280;68467;50.960;0.314;2023-03-13T10:18:12;97864.53;;;8.18;100.00
64628;BME280;68467;50.960;0.314;2023-03-13T10:20:40;97865.19;;;8.55;100.00
64628;BME280;68467;50.960;0.314;2023-03-13T10:23:15;97859.87;;;8.44;100.00
64628;BME280;68467;50.960;0.314;2023-03-13T10:25:44;97825.77;;;8.65;100.00
64628;BME280;68467;50.960;0.314;2023-03-13T10:28:13;97820.23;;;8.78;100.00
64628;BME280;68467;50.960;0.314;2023-03-13T10:30:47;97842.57;;;8.87;100.00
64628;BME280;68467;50.960;0.314;2023-03-13T10:33:23;97850.13;;;8.78;100.00
64628;BME280;68467;50.960;0.314;2023-03-13T10:36:01;97846.79;;;8.94;100.00
64628;BME280;68467;50.960;0.314;2023-03-13T10:38:33;97829.47;;;9.10;100.00
64628;BME280;68467;50.960;0.314;2023-03-13T10:41:03;97838.78;;;9.09;100.00
64628;BME280;68467;50.960;0.314;2023-03-13T10:43:33;97827.64;;;9.41;100.00
64628;BME280;68467;50.960;0.314;2023-03-13T10:46:00;97826.61;;;9.44;100.00
64628;BME280;68467;50.960;0.314;2023-03-13T10:48:30;97820.54;;;9.25;100.00
64628;BME280;68467;50.960;0.314;2023-03-13T10:51:02;97809.51;;;9.34;100.00
64628;BME280;68467;50.960;0.314;2023-03-13T10:53:34;97812.55;;;8.87;100.00
64628;BME280;68467;50.960;0.314;2023-03-13T10:56:09;97813.10;;;9.16;100.00
64628;BME280;68467;50.960;0.314;2023-03-13T10:58:42;97812.04;;;9.16;100.00
64628;BME280;68467;50.960;0.314;2023-03-13T11:01:16;97798.14;;;9.12;100.00
64628;BME280;68467;50.960;0.314;2023-03-13T11:03:45;97810.67;;;8.77;100.00
64628;BME280;68467;50.960;0.314;2023-03-13T11:06:29;97809.83;;;9.08;100.00
64628;BME280;68467;50.960;0.314;2023-03-13T11:09:02;97817.99;;;8.78;100.00
64628;BME280;68467;50.960;0.314;2023-03-13T11:11:30;97820.14;;;8.89;100.00
64628;BME280;68467;50.960;0.314;2023-03-13T11:14:16;97804.68;;;8.29;100.00
64628;BME280;68467;50.960;0.314;2023-03-13T11:16:48;97803.82;;;8.95;100.00
64628;BME280;68467;50.960;0.314;2023-03-13T11:19:28;97811.93;;;8.42;100.00
64628;BME280;68467;50.960;0.314;2023-03-13T11:22:06;97803.06;;;8.33;100.00
64628;BME280;68467;50.960;0.314;2023-03-13T11:24:43;97791.21;;;8.99;100.00
64628;BME280;68467;50.960;0.314;2023-03-13T11:27:20;97776.97;;;9.23;100.00
64628;BME280;68467;50.960;0.314;2023-03-13T11:29:59;97795.51;;;9.42;100.00
64628;BME280;68467;50.960;0.314;2023-03-13T11:32:40;97790.67;;;9.27;100.00
64628;BME280;68467;50.960;0.314;2023-03-13T11:35:19;97787.91;;;9.38;100.00
64628;BME280;68467;50.960;0.314;2023-03-13T11:37:50;97786.13;;;9.14;100.00
64628;BME280;68467;50.960;0.314;2023-03-13T11:40:26;97801.65;;;9.23;100.00
64628;BME280;68467;50.960;0.314;2023-03-13T11:43:19;97776.09;;;9.96;100.00
64628;BME280;68467;50.960;0.314;2023-03-13T11:45:59;97783.21;;;9.76;100.00
64628;BME280;68467;50.960;0.314;2023-03-13T11:49:01;97772.21;;;9.72;100.00
64628;BME280;68467;50.960;0.314;2023-03-13T11:51:52;97787.09;;;9.64;100.00
64628;BME280;68467;50.960;0.314;2023-03-13T11:54:39;97784.78;;;9.30;100.00
64628;BME280;68467;50.960;0.314;2023-03-13T11:57:15;97793.13;;;9.41;100.00
64628;BME280;68467;50.960;0.314;2023-03-13T11:59:49;97757.50;;;9.75;100.00
64628;BME280;68467;50.960;0.314;2023-03-13T12:02:26;97784.52;;;9.83;100.00
64628;BME280;68467;50.960;0.314;2023-03-13T12:04:58;97777.18;;;8.93;100.00
64628;BME280;68467;50.960;0.314;2023-03-13T12:07:31;97777.17;;;8.74;100.00
64628;BME280;68467;50.960;0.314;2023-03-13T12:10:10;97775.39;;;8.51;100.00
64628;BME280;68467;50.960;0.314;2023-03-13T12:12:53;97774.03;;;8.66;100.00
64628;BME280;68467;50.960;0.314;2023-03-13T12:15:27;97772.20;;;9.03;100.00
64628;BME280;68467;50.960;0.314;2023-03-13T12:18:00;97769.57;;;9.29;100.00
64628;BME280;68467;50.960;0.314;2023-03-13T12:20:37;97750.35;;;8.77;100.00
64628;BME280;68467;50.960;0.314;2023-03-13T12:23:16;97756.48;;;9.15;100.00
64628;BME280;68467;50.960;0.314;2023-03-13T12:25:49;97784.18;;;9.25;100.00
64628;BME280;68467;50.960;0.314;2023-03-13T12:28:25;97755.47;;;8.89;100.00
64628;BME280;68467;50.960;0.314;2023-03-13T12:31:15;97757.60;;;9.26;100.00
64628;BME280;68467;50.960;0.314;2023-03-13T12:33:50;97758.19;;;9.23;100.00
64628;BME280;68467;50.960;0.314;2023-03-13T12:36:23;97741.37;;;9.37;100.00
64628;BME280;68467;50.960;0.314;2023-03-13T12:39:06;97753.88;;;9.35;100.00
64628;BME280;68467;50.960;0.314;2023-03-13T12:41:41;97754.06;;;9.12;100.00
64628;BME280;68467;50.960;0.314;2023-03-13T12:44:11;97752.86;;;8.99;100.00
64628;BME280;68467;50.960;0.314;2023-03-13T12:46:45;97744.28;;;9.14;100.00
64628;BME280;68467;50.960;0.314;2023-03-13T12:50:28;97742.57;;;8.91;100.00
64628;BME280;68467;50.960;0.314;2023-03-13T12:53:16;97736.62;;;8.94;100.00
64628;BME280;68467;50.960;0.314;2023-03-13T12:56:08;97744.68;;;9.30;100.00
64628;BME280;68467;50.960;0.314;2023-03-13T12:58:51;97743.05;;;8.66;100.00
64628;BME280;68467;50.960;0.314;2023-03-13T13:01:28;97735.42;;;9.07;100.00
64628;BME280;68467;50.960;0.314;2023-03-13T13:03:59;97725.99;;;9.22;100.00
64628;BME280;68467;50.960;0.314;2023-03-13T13:06:29;97736.44;;;9.54;100.00
64628;BME280;68467;50.960;0.314;2023-03-13T13:09:20;97729.64;;;9.53;100.00
64628;BME280;68467;50.960;0.314;2023-03-13T13:11:50;97717.41;;;9.45;100.00
64628;BME280;68467;50.960;0.314;2023-03-13T13:15:13;97728.24;;;9.54;100.00
64628;BME280;68467;50.960;0.314;2023-03-13T13:17:50;97709.79;;;9.82;100.00